createdAt,value
2022-11-24T00:09:35.317Z,28.23
2022-11-24T00:19:37.028Z,37.15
2022-11-24T00:29:39.500Z,41.72
2022-11-24T00:39:41.187Z,41.83
2022-11-24T00:49:44.827Z,46.95
2022-11-24T00:59:47.903Z,45.28
2022-11-24T01:09:52.577Z,49.17
2022-11-24T01:19:54.285Z,50.78
2022-11-24T01:29:55.922Z,51.05
2022-11-24T01:39:57.611Z,52.90
2022-11-24T01:50:01.946Z,58.35
2022-11-24T02:00:11.944Z,57.08
2022-11-24T02:10:17.427Z,55.17
2022-11-24T02:20:19.281Z,62.53
2022-11-24T02:30:21.202Z,66.78
2022-11-24T02:40:27.050Z,69.18
2022-11-24T02:50:28.917Z,72.28
2022-11-24T03:00:30.756Z,79.07
2022-11-24T03:10:37.554Z,76.32
2022-11-24T03:20:39.272Z,92.03
2022-11-24T03:30:41.017Z,95.40
2022-11-24T03:40:42.755Z,79.40
2022-11-24T03:50:53.251Z,78.78
2022-11-24T04:00:56.195Z,74.38
2022-11-24T04:10:57.917Z,82.13
2022-11-24T04:21:01.738Z,81.85
2022-11-24T04:41:05.911Z,97.88
2022-11-24T04:51:07.835Z,98.45
2022-11-24T05:01:09.956Z,97.30
2022-11-24T05:11:11.748Z,105.57
2022-11-24T05:21:13.378Z,109.25
2022-11-24T05:31:15.091Z,109.72
2022-11-24T05:41:16.732Z,98.95
2022-11-24T05:51:31.068Z,93.05
2022-11-24T06:01:37.890Z,90.70
2022-11-24T06:11:40.603Z,82.70
2022-11-24T06:21:42.242Z,82.15
2022-11-24T06:31:43.937Z,84.93
2022-11-24T06:41:46.656Z,73.65
2022-11-24T06:51:50.606Z,77.10
2022-11-24T07:01:52.870Z,64.88
2022-11-24T07:11:55.864Z,70.50
2022-11-24T07:21:59.593Z,63.13
2022-11-24T07:32:05.394Z,66.20
2022-11-24T07:42:08.590Z,61.00
2022-11-24T07:52:11.433Z,57.28
2022-11-24T08:02:13.459Z,58.90
2022-11-24T08:12:17.015Z,66.97
2022-11-24T08:22:18.599Z,63.92
2022-11-24T08:32:22.403Z,66.47
2022-11-24T08:42:25.295Z,69.90
2022-11-24T08:52:26.946Z,68.32
2022-11-24T09:02:28.700Z,63.08
2022-11-24T09:12:34.804Z,67.38
2022-11-24T09:22:38.262Z,61.10
2022-11-24T09:32:41.514Z,69.38
2022-11-24T09:43:17.601Z,60.17
2022-11-24T09:53:26.449Z,58.70
2022-11-24T10:03:39.939Z,58.05
2022-11-24T10:13:56.784Z,53.42
2022-11-24T10:24:30.248Z,61.42
2022-11-24T10:34:44.871Z,57.00
2022-11-24T10:44:46.881Z,53.97
2022-11-24T10:55:00.224Z,53.03
2022-11-24T11:05:31.720Z,56.67
2022-11-24T11:15:37.706Z,43.05
2022-11-24T11:25:43.987Z,45.63
2022-11-24T11:35:46.148Z,42.50
2022-11-24T11:46:13.384Z,40.72
2022-11-24T11:56:27.187Z,42.95
2022-11-24T12:06:31.737Z,37.45
2022-11-24T12:16:54.980Z,32.97
2022-11-24T12:27:25.317Z,34.33
2022-11-24T12:37:39.142Z,24.60
2022-11-24T12:48:04.497Z,24.85
2022-11-24T12:58:22.876Z,24.63
2022-11-24T13:08:29.575Z,25.50
2022-11-24T13:19:22.972Z,26.13
2022-11-24T13:29:25.621Z,24.30
2022-11-24T13:39:50.483Z,26.30
2022-11-24T13:49:55.637Z,25.23
2022-11-24T14:00:04.963Z,27.75
2022-11-24T14:10:39.122Z,26.30
2022-11-24T14:20:41.103Z,28.05
2022-11-24T14:31:07.579Z,29.55
2022-11-24T14:41:28.468Z,30.80
2022-11-24T14:51:43.509Z,28.73
2022-11-24T15:01:48.939Z,28.30
2022-11-24T15:11:55.513Z,34.22
2022-11-24T15:21:57.097Z,33.70
2022-11-24T15:31:58.809Z,32.38
2022-11-24T15:42:05.025Z,32.20
2022-11-24T15:52:07.298Z,35.72
2022-11-24T16:02:09.791Z,31.27
2022-11-24T16:12:12.629Z,36.58
2022-11-24T16:22:14.250Z,36.67
2022-11-24T16:32:26.574Z,38.75
2022-11-24T16:42:28.842Z,38.13
2022-11-24T16:52:34.060Z,42.13
2022-11-24T17:02:36.399Z,40.92
2022-11-24T17:12:38.587Z,42.22
2022-11-24T17:22:40.574Z,37.08
2022-11-24T17:32:42.297Z,38.35
2022-11-24T17:42:45.979Z,36.72
2022-11-24T17:52:48.188Z,35.28
2022-11-24T18:02:50.168Z,37.70
2022-11-24T18:12:52.055Z,38.03
2022-11-24T18:23:09.047Z,43.05
2022-11-24T18:33:12.095Z,41.67
2022-11-24T18:43:16.986Z,38.47
2022-11-24T18:53:25.555Z,40.80
2022-11-24T19:03:27.328Z,39.80
2022-11-24T19:13:33.494Z,43.38
2022-11-24T19:23:35.866Z,39.95
2022-11-24T19:33:38.406Z,46.17
2022-11-24T19:43:42.326Z,45.15
2022-11-24T20:04:02.425Z,44.38
2022-11-24T20:14:06.809Z,46.03
2022-11-24T20:24:16.712Z,48.67
2022-11-24T20:34:20.769Z,44.80
2022-11-24T20:44:26.886Z,47.38
2022-11-24T20:54:30.755Z,45.80
2022-11-24T21:14:42.060Z,45.47
2022-11-24T21:24:43.743Z,48.03
2022-11-24T21:34:46.119Z,45.63
2022-11-24T21:44:50.657Z,42.78
2022-11-24T21:54:52.535Z,49.13
2022-11-24T22:04:56.471Z,51.63
2022-11-24T22:25:03.157Z,57.37
2022-11-24T22:35:06.402Z,51.70
2022-11-24T22:45:09.713Z,52.13
2022-11-24T22:55:12.350Z,50.20
2022-11-24T23:05:20.694Z,45.28
2022-11-24T23:15:22.614Z,41.35
2022-11-24T23:25:26.405Z,46.28
2022-11-24T23:35:28.106Z,42.40
2022-11-24T23:45:29.815Z,41.05
2022-11-24T23:55:31.463Z,40.85
